Time;durP1;ratioP1;P1;durP2;ratioP2;P2;SDS_P1;SDS_P2;PMS_P1;PMS_P2;Temp;Humidity;BMP_temperature;BMP_pressure;BME280_temperature;BME280_humidity;BME280_pressure;Samples;Min_cycle;Max_cycle;Signal;HPM_P1;HPM_P2
2022/02/02 00:00:33;;;;;;;48.13;6.68;;;6.60;99.90;;;;;;6125103;23;20028;-88
2022/02/02 00:03:05;;;;;;;35.75;5.93;;;6.70;99.90;;;;;;6102806;23;20013;-87
2022/02/02 00:06:05;;;;;;;54.72;6.53;;;6.70;99.90;;;;;;6102695;23;20011;-88
2022/02/02 00:08:25;;;;;;;52.50;6.88;;;6.60;99.90;;;;;;6134863;23;20107;-88
2022/02/02 00:18:51;;;;;;;40.67;7.60;;;6.80;99.90;;;;;;6125069;23;20012;-88
2022/02/02 00:21:28;;;;;;;44.00;7.18;;;6.70;99.90;;;;;;6102687;23;20490;-88
2022/02/02 00:24:03;;;;;;;49.42;7.38;;;6.70;99.90;;;;;;6105840;23;20017;-88
2022/02/02 00:26:37;;;;;;;56.97;7.03;;;6.70;99.90;;;;;;6129811;23;20009;-88
2022/02/02 00:29:09;;;;;;;29.00;4.47;;;6.80;99.90;;;;;;6104578;23;20236;-88
2022/02/02 00:31:41;;;;;;;34.80;6.43;;;6.70;99.90;;;;;;6128192;23;20088;-88
2022/02/02 00:34:11;;;;;;;36.30;6.57;;;6.70;99.90;;;;;;6103969;23;20013;-88
2022/02/02 00:36:46;;;;;;;35.53;6.85;;;6.70;99.90;;;;;;6102689;23;20124;-88
2022/02/02 00:39:12;;;;;;;39.42;6.72;;;6.60;99.90;;;;;;6107990;23;20070;-88
2022/02/02 00:41:37;;;;;;;39.85;6.90;;;6.60;99.90;;;;;;6098457;23;20513;-88
2022/02/02 00:44:04;;;;;;;42.85;6.30;;;6.60;99.90;;;;;;6104193;23;20052;-88
2022/02/02 00:46:30;;;;;;;30.45;5.65;;;6.50;99.90;;;;;;6101441;23;20023;-88
2022/02/02 00:49:03;;;;;;;46.95;6.82;;;6.40;99.90;;;;;;6099751;23;20063;-88
2022/02/02 00:51:45;;;;;;;53.97;5.80;;;6.40;99.90;;;;;;6102994;23;20023;-88
2022/02/02 00:54:21;;;;;;;34.67;5.50;;;6.40;99.90;;;;;;6105718;23;20488;-88
2022/02/02 00:56:47;;;;;;;35.20;5.28;;;6.20;99.90;;;;;;6100921;23;20013;-88
2022/02/02 00:59:13;;;;;;;32.22;3.97;;;6.30;99.90;;;;;;6100464;23;20043;-88
2022/02/02 01:01:38;;;;;;;43.35;6.93;;;6.20;99.90;;;;;;6100739;23;20009;-88
2022/02/02 01:04:04;;;;;;;42.72;6.13;;;6.30;99.90;;;;;;6098707;23;20029;-88
2022/02/02 01:06:33;;;;;;;40.22;5.88;;;6.20;99.90;;;;;;6100409;23;20371;-88
2022/02/02 01:09:13;;;;;;;24.33;4.03;;;6.30;99.90;;;;;;6101243;23;20529;-87
2022/02/02 01:19:44;;;;;;;26.80;3.88;;;6.20;99.90;;;;;;6113642;23;20457;-88
2022/02/02 01:30:05;;;;;;;27.90;4.20;;;6.20;99.90;;;;;;6132690;23;20033;-88
2022/02/02 01:32:37;;;;;;;58.95;6.57;;;6.10;99.90;;;;;;6121575;23;20017;-88
2022/02/02 01:35:15;;;;;;;27.02;3.83;;;6.20;99.90;;;;;;6124545;23;20365;-88
2022/02/02 01:37:45;;;;;;;40.35;6.60;;;6.20;99.90;;;;;;6105166;23;20100;-88
2022/02/02 01:40:25;;;;;;;50.53;11.05;;;6.20;99.90;;;;;;6101232;23;20005;-88
2022/02/02 01:43:00;;;;;;;54.10;7.18;;;6.10;99.90;;;;;;6105023;23;20105;-88
2022/02/02 01:45:51;;;;;;;53.20;7.55;;;6.20;99.90;;;;;;6105971;23;20496;-88
2022/02/02 01:57:19;;;;;;;43.83;6.15;;;6.30;99.90;;;;;;6173822;23;20040;-88
2022/02/02 01:59:44;;;;;;;50.47;7.20;;;6.30;99.90;;;;;;6110095;23;20084;-88
2022/02/02 02:02:10;;;;;;;53.05;7.72;;;6.30;99.90;;;;;;6104129;23;20029;-87
2022/02/02 02:04:36;;;;;;;51.38;8.65;;;6.30;99.90;;;;;;6099882;23;20509;-87
2022/02/02 02:07:02;;;;;;;20.48;3.28;;;6.30;99.90;;;;;;6105136;23;20100;-88
2022/02/02 02:09:28;;;;;;;44.55;6.57;;;6.30;99.90;;;;;;6103056;23;20342;-88
2022/02/02 02:12:18;;;;;;;53.10;8.18;;;6.40;99.90;;;;;;6127168;23;20032;-87
2022/02/02 02:15:06;;;;;;;53.92;6.88;;;6.30;99.90;;;;;;6124801;23;20358;-88
2022/02/02 02:17:31;;;;;;;52.05;7.18;;;6.30;99.90;;;;;;6107118;23;20078;-87
2022/02/02 02:19:57;;;;;;;47.70;6.50;;;6.40;99.90;;;;;;6101527;23;20009;-87
2022/02/02 02:22:25;;;;;;;51.63;7.10;;;6.40;99.90;;;;;;6125798;23;20311;-88
2022/02/02 02:24:52;;;;;;;29.83;4.95;;;6.30;99.90;;;;;;6102548;23;20032;-88
2022/02/02 02:27:20;;;;;;;44.55;7.53;;;6.30;99.90;;;;;;6097560;23;20087;-88
2022/02/02 02:35:20;;;;;;;35.80;5.25;;;6.40;99.90;;;;;;6128837;23;20020;-88
2022/02/02 02:55:48;;;;;;;44.95;6.97;;;6.30;99.90;;;;;;6133693;23;20085;-87
2022/02/02 02:57:14;;;;;;;49.10;9.02;;;6.30;99.90;;;;;;6133710;23;20516;-87
2022/02/02 02:59:59;;;;;;;39.05;6.95;;;6.30;99.90;;;;;;6087193;23;20024;-88
2022/02/02 03:03:11;;;;;;;49.65;8.57;;;6.30;99.90;;;;;;6109350;23;20121;-88
2022/02/02 03:30:05;;;;;;;38.67;6.88;;;6.40;99.90;;;;;;6123331;23;20025;-88
2022/02/02 03:33:01;;;;;;;51.47;6.50;;;6.40;99.90;;;;;;6099798;23;20010;-88
2022/02/02 04:04:39;;;;;;;62.20;8.23;;;6.40;99.90;;;;;;6123834;23;20576;-86
2022/02/02 04:07:18;;;;;;;34.75;5.80;;;6.50;99.90;;;;;;6071043;23;20378;-87
2022/02/02 04:09:47;;;;;;;46.78;6.20;;;6.40;99.90;;;;;;6076823;23;20351;-87
2022/02/02 04:12:31;;;;;;;34.55;5.40;;;6.40;99.90;;;;;;6071980;23;20039;-86
2022/02/02 04:55:51;;;;;;;44.15;6.32;;;6.40;99.90;;;;;;6099928;23;20017;-87
2022/02/02 04:58:34;;;;;;;;;;;6.30;99.90;;;;;;6076915;23;20077;-87
2022/02/02 05:04:11;;;;;;;63.90;8.02;;;6.40;99.90;;;;;;6103122;23;20024;-87
2022/02/02 05:06:46;;;;;;;60.20;9.13;;;6.40;99.90;;;;;;6083534;23;20506;-87
2022/02/02 05:49:36;;;;;;;33.95;5.85;;;6.50;99.90;;;;;;6102925;23;20017;-87
2022/02/02 05:52:02;;;;;;;34.92;4.55;;;6.40;99.90;;;;;;6106723;23;20048;-87
2022/02/02 05:54:27;;;;;;;32.45;5.20;;;6.40;99.90;;;;;;6073920;23;20010;-87
2022/02/02 05:56:54;;;;;;;27.13;3.13;;;6.30;99.90;;;;;;6073054;23;20347;-86
2022/02/02 05:59:27;;;;;;;26.55;4.50;;;6.30;99.90;;;;;;6067969;23;20018;-86
2022/02/02 06:01:55;;;;;;;27.73;3.30;;;6.30;99.90;;;;;;6067280;23;20024;-86
2022/02/02 06:04:29;;;;;;;25.27;4.15;;;6.30;99.90;;;;;;6073644;23;20028;-87
2022/02/02 06:06:56;;;;;;;17.35;3.22;;;6.20;99.90;;;;;;6072363;23;20014;-87
2022/02/02 06:09:29;;;;;;;19.00;2.72;;;6.20;99.90;;;;;;6073122;23;20013;-86
2022/02/02 06:11:55;;;;;;;19.67;2.88;;;6.20;99.90;;;;;;6099651;23;20017;-87
2022/02/02 06:14:27;;;;;;;20.88;3.22;;;6.20;99.90;;;;;;6097871;23;20012;-86
2022/02/02 06:16:54;;;;;;;20.23;2.90;;;6.20;99.90;;;;;;6097932;23;20465;-86
2022/02/02 06:19:19;;;;;;;20.48;3.30;;;6.20;99.90;;;;;;6067907;23;20093;-86
2022/02/02 06:22:03;;;;;;;15.98;3.03;;;6.20;99.90;;;;;;6072820;23;20037;-87
2022/02/02 06:24:31;;;;;;;10.48;2.22;;;6.10;99.90;;;;;;6100794;23;20064;-87
2022/02/02 06:27:05;;;;;;;12.85;2.58;;;6.10;99.90;;;;;;6073639;23;20049;-88
2022/02/02 06:29:32;;;;;;;21.25;3.33;;;6.10;99.90;;;;;;6061261;23;20005;-88
2022/02/02 06:31:57;;;;;;;20.75;2.72;;;6.10;99.90;;;;;;6071103;23;20017;-88
2022/02/02 06:34:23;;;;;;;15.52;3.13;;;6.10;99.90;;;;;;6094186;23;20009;-88
2022/02/02 06:36:50;;;;;;;16.08;2.78;;;6.00;99.90;;;;;;6073089;23;20160;-88
2022/02/02 06:39:16;;;;;;;26.60;4.03;;;5.90;99.90;;;;;;6074021;23;20014;-89
2022/02/02 06:41:42;;;;;;;11.90;2.47;;;5.90;99.90;;;;;;6073500;23;20024;-88
2022/02/02 06:44:07;;;;;;;27.58;4.80;;;5.70;99.90;;;;;;6069017;23;20023;-88
2022/02/02 06:46:35;;;;;;;26.13;3.35;;;5.60;99.90;;;;;;6058412;23;20016;-91
2022/02/02 06:49:08;;;;;;;18.63;2.85;;;5.60;99.90;;;;;;6053381;23;20017;-90
2022/02/02 06:52:02;;;;;;;26.88;5.05;;;5.50;99.90;;;;;;6076959;23;20009;-91
2022/02/02 06:54:51;;;;;;;16.98;2.75;;;5.50;99.90;;;;;;6117928;23;20073;-91
2022/02/02 06:57:23;;;;;;;19.65;3.85;;;5.50;99.90;;;;;;6121776;23;20013;-90
2022/02/02 07:00:09;;;;;;;23.45;4.05;;;5.40;99.90;;;;;;6046290;23;20021;-90
2022/02/02 07:02:54;;;;;;;;;;;5.20;99.90;;;;;;6095252;23;20013;-91
2022/02/02 07:08:49;;;;;;;28.55;5.88;;;5.20;99.90;;;;;;6094196;23;20010;-91
2022/02/02 07:11:25;;;;;;;25.55;3.97;;;5.20;99.90;;;;;;6094729;23;20343;-91
2022/02/02 07:22:21;;;;;;;24.05;6.78;;;5.20;99.90;;;;;;6114087;23;20009;-91
2022/02/02 07:27:39;;;;;;;28.10;5.28;;;5.40;99.90;;;;;;6098036;23;20009;-91
2022/02/02 07:30:17;;;;;;;24.13;4.20;;;5.40;99.90;;;;;;6081743;23;20019;-91
2022/02/02 07:32:52;;;;;;;23.52;3.88;;;5.40;99.90;;;;;;6079348;23;20025;-91
2022/02/02 07:35:32;;;;;;;23.25;5.25;;;5.40;99.90;;;;;;6059993;23;20089;-89
2022/02/02 07:38:27;;;;;;;28.20;7.25;;;5.30;99.90;;;;;;6076203;23;20466;-92
2022/02/02 07:40:56;;;;;;;15.82;3.10;;;5.30;99.90;;;;;;6079815;23;20009;-91
2022/02/02 07:43:25;;;;;;;28.00;5.72;;;5.30;99.90;;;;;;6094692;23;20073;-91
2022/02/02 07:46:19;;;;;;;30.65;4.88;;;5.40;99.90;;;;;;6074361;23;20014;-91
2022/02/02 07:48:47;;;;;;;31.75;6.07;;;5.40;99.90;;;;;;6063234;23;20545;-91
2022/02/02 07:51:16;;;;;;;24.75;4.80;;;5.40;99.90;;;;;;6072547;23;20014;-90
2022/02/02 07:53:48;;;;;;;45.92;6.38;;;5.50;99.90;;;;;;6074426;23;20091;-90
2022/02/02 07:56:20;;;;;;;41.38;6.93;;;5.40;99.90;;;;;;6077945;23;20059;-91
2022/02/02 07:58:58;;;;;;;31.92;5.15;;;5.40;99.90;;;;;;6071909;23;20009;-91
2022/02/02 08:01:23;;;;;;;41.83;6.18;;;5.50;99.90;;;;;;6076566;23;20080;-91
2022/02/02 08:03:54;;;;;;;42.00;5.80;;;5.50;99.90;;;;;;6074679;23;20025;-92
2022/02/02 08:06:27;;;;;;;37.00;6.20;;;5.50;99.90;;;;;;6060569;23;20021;-91
2022/02/02 08:08:52;;;;;;;42.50;5.70;;;5.50;99.90;;;;;;6063210;23;20099;-92
2022/02/02 08:11:27;;;;;;;37.97;5.47;;;5.60;99.90;;;;;;6069987;23;20027;-91
2022/02/02 08:13:57;;;;;;;37.38;6.90;;;5.60;99.90;;;;;;6049505;23;20368;-92
2022/02/02 08:16:23;;;;;;;22.65;3.60;;;5.60;99.90;;;;;;6084456;23;20009;-91
2022/02/02 08:18:51;;;;;;;45.05;5.85;;;5.70;99.90;;;;;;6080075;23;20343;-91
2022/02/02 08:21:17;;;;;;;37.20;5.82;;;5.70;99.90;;;;;;6074483;23;20014;-91
2022/02/02 08:23:43;;;;;;;42.13;7.43;;;5.80;99.90;;;;;;6059125;23;20021;-91
2022/02/02 08:26:22;;;;;;;21.50;4.55;;;5.70;99.90;;;;;;6096462;23;20013;-91
2022/02/02 08:28:52;;;;;;;48.42;6.22;;;5.70;99.90;;;;;;6096707;23;20009;-91
2022/02/02 08:31:21;;;;;;;38.75;5.57;;;5.80;99.90;;;;;;6049705;23;20040;-91
2022/02/02 08:34:08;;;;;;;28.63;4.40;;;5.80;99.90;;;;;;6035506;23;20014;-91
2022/02/02 08:36:34;;;;;;;43.13;7.05;;;5.80;99.90;;;;;;6057904;23;20017;-91
2022/02/02 08:39:37;;;;;;;45.13;6.80;;;5.90;99.90;;;;;;6073592;23;20024;-90
2022/02/02 08:41:51;;;;;;;;;;;5.90;99.90;;;;;;6104153;23;20014;-90
2022/02/02 08:44:24;;;;;;;32.90;5.22;;;6.00;99.90;;;;;;6099767;23;19919;-91
2022/02/02 08:47:06;;;;;;;39.90;5.95;;;6.10;99.90;;;;;;6077604;23;20094;-91
2022/02/02 08:49:46;;;;;;;34.88;5.35;;;6.10;99.90;;;;;;6075911;23;20013;-91
2022/02/02 08:52:13;;;;;;;39.17;7.10;;;6.10;99.90;;;;;;6073409;23;20379;-90
2022/02/02 08:54:45;;;;;;;22.75;5.10;;;6.10;99.90;;;;;;6072301;23;20017;-90
2022/02/02 08:57:25;;;;;;;29.40;4.90;;;6.20;99.90;;;;;;6071114;23;20021;-90
2022/02/02 08:59:57;;;;;;;34.20;5.75;;;6.20;99.90;;;;;;6076347;23;20328;-90
2022/02/02 09:02:38;;;;;;;18.33;3.55;;;6.30;99.90;;;;;;6071015;23;20021;-90
2022/02/02 09:05:25;;;;;;;36.42;4.85;;;6.30;99.90;;;;;;6104420;23;20022;-90
2022/02/02 09:07:51;;;;;;;37.17;5.75;;;6.40;99.90;;;;;;6084220;23;20056;-90
2022/02/02 09:10:25;;;;;;;25.75;4.60;;;6.40;99.90;;;;;;6071780;23;20020;-90
2022/02/02 09:24:02;;;;;;;26.95;4.18;;;6.70;99.90;;;;;;6094746;23;20021;-89
2022/02/02 09:34:57;;;;;;;16.50;4.30;;;6.90;99.90;;;;;;6105742;23;20738;-89
2022/02/02 09:37:24;;;;;;;32.60;5.28;;;6.90;99.90;;;;;;6065527;23;20006;-89
2022/02/02 09:40:02;;;;;;;43.05;5.97;;;6.90;99.90;;;;;;6072583;23;20010;-89
2022/02/02 09:42:28;;;;;;;38.85;5.45;;;6.90;99.90;;;;;;6077601;23;20529;-89
2022/02/02 09:44:58;;;;;;;44.10;5.40;;;7.00;99.90;;;;;;6064012;23;20021;-89
2022/02/02 09:47:29;;;;;;;19.73;3.80;;;7.10;99.90;;;;;;6095718;23;20331;-89
2022/02/02 09:50:05;;;;;;;26.10;3.67;;;7.10;99.90;;;;;;6075903;23;20048;-89
2022/02/02 09:52:43;;;;;;;32.00;4.75;;;7.20;99.90;;;;;;6073455;23;20367;-90
2022/02/02 09:55:16;;;;;;;32.72;5.07;;;7.30;99.90;;;;;;6074330;23;20009;-90
2022/02/02 10:01:15;;;;;;;37.15;6.40;;;7.30;99.90;;;;;;6098046;23;20096;-89
2022/02/02 10:06:40;;;;;;;30.85;4.80;;;7.50;99.90;;;;;;6060010;23;20082;-89
2022/02/02 10:09:27;;;;;;;36.20;5.30;;;7.50;99.90;;;;;;6083512;23;20450;-90
2022/02/02 10:14:28;;;;;;;46.78;5.82;;;7.70;99.90;;;;;;6097600;23;20349;-89
2022/02/02 10:20:29;;;;;;;30.98;4.97;;;7.70;99.90;;;;;;6131592;23;20055;-90
2022/02/02 10:22:59;;;;;;;22.20;4.35;;;7.80;99.90;;;;;;6096886;23;20059;-88
2022/02/02 10:25:34;;;;;;;37.38;6.82;;;7.90;99.90;;;;;;6099623;23;20013;-89
2022/02/02 10:28:06;;;;;;;26.33;6.05;;;7.90;99.90;;;;;;6092439;23;20385;-88
2022/02/02 10:30:32;;;;;;;29.98;4.55;;;8.00;99.90;;;;;;6082220;23;20005;-88
2022/02/02 10:32:58;;;;;;;26.27;4.60;;;8.10;99.90;;;;;;6099144;23;20082;-88
2022/02/02 10:35:38;;;;;;;30.63;3.83;;;8.00;99.90;;;;;;6076109;23;20446;-89
2022/02/02 10:38:10;;;;;;;28.92;4.80;;;8.00;99.90;;;;;;6062386;23;20009;-89
2022/02/02 10:43:22;;;;;;;;;;;8.10;99.90;;;;;;6107058;23;20076;-88
2022/02/02 10:45:47;;;;;;;22.23;3.90;;;8.20;99.90;;;;;;6122930;23;20606;-89
2022/02/02 10:48:32;;;;;;;31.77;5.30;;;8.20;99.90;;;;;;6108988;23;20013;-89
2022/02/02 10:51:05;;;;;;;22.45;3.33;;;8.30;99.90;;;;;;6078401;23;20260;-89
2022/02/02 10:53:43;;;;;;;22.70;3.47;;;8.40;99.90;;;;;;6080649;23;20132;-89
2022/02/02 11:07:14;;;;;;;24.80;3.85;;;8.60;99.90;;;;;;6109028;23;20024;-88
2022/02/02 11:09:41;;;;;;;26.30;4.05;;;8.70;99.90;;;;;;6074223;23;20014;-89
2022/02/02 11:12:07;;;;;;;30.40;4.43;;;8.80;99.90;;;;;;6079503;23;20014;-89
2022/02/02 11:14:57;;;;;;;11.55;2.33;;;8.80;99.90;;;;;;6064116;23;20009;-89
2022/02/02 11:17:46;;;;;;;20.92;3.70;;;8.80;99.90;;;;;;6088251;23;20088;-89
2022/02/02 11:20:13;;;;;;;17.15;2.30;;;8.80;99.90;;;;;;6099399;23;20006;-89
2022/02/02 11:22:53;;;;;;;25.20;3.88;;;8.80;99.90;;;;;;6071382;23;20006;-89
2022/02/02 11:25:24;;;;;;;21.52;3.97;;;8.80;99.90;;;;;;6072601;23;20090;-88
2022/02/02 11:27:54;;;;;;;22.25;3.47;;;8.90;99.90;;;;;;6107084;23;20024;-88
2022/02/02 11:30:23;;;;;;;25.13;3.80;;;8.90;99.90;;;;;;6079921;23;20056;-89
2022/02/02 11:32:55;;;;;;;28.42;4.05;;;9.00;99.90;;;;;;6110768;23;20069;-89
2022/02/02 11:35:45;;;;;;;23.85;3.47;;;9.00;99.90;;;;;;6073159;23;20712;-88
2022/02/02 11:38:36;;;;;;;22.50;4.78;;;9.00;99.90;;;;;;6083755;23;20010;-89
2022/02/02 11:41:17;;;;;;;16.92;3.13;;;9.00;99.90;;;;;;6105220;23;20115;-89
2022/02/02 11:43:55;;;;;;;22.20;3.75;;;9.10;99.90;;;;;;6065017;23;20018;-89
2022/02/02 11:50:05;;;;;;;21.75;3.30;;;9.10;99.90;;;;;;6111488;23;20333;-88
2022/02/02 11:52:49;;;;;;;19.08;3.55;;;9.30;99.90;;;;;;6080839;23;20017;-88
2022/02/02 11:55:18;;;;;;;17.90;3.25;;;9.40;99.90;;;;;;6051971;23;20367;-87
2022/02/02 11:58:23;;;;;;;23.92;5.57;;;9.40;99.90;;;;;;6105120;23;20009;-88
2022/02/02 12:01:20;;;;;;;19.80;3.13;;;9.30;99.90;;;;;;6045115;23;20276;-88
2022/02/02 12:06:31;;;;;;;21.33;3.45;;;9.40;99.90;;;;;;6095329;23;20068;-89
2022/02/02 12:09:08;;;;;;;23.13;3.47;;;9.50;99.90;;;;;;6073348;23;20010;-88
2022/02/02 12:19:05;;;;;;;26.27;5.03;;;9.40;99.90;;;;;;6097939;23;20036;-88
2022/02/02 12:27:52;;;;;;;26.02;4.47;;;9.60;99.90;;;;;;6099938;23;20107;-87
2022/02/02 12:56:07;;;;;;;30.80;7.03;;;9.90;99.90;;;;;;6104531;23;20016;-88
2022/02/02 12:58:26;;;;;;;33.40;5.40;;;9.90;99.90;;;;;;6109962;23;20018;-88
2022/02/02 13:01:09;;;;;;;27.48;5.38;;;10.00;99.90;;;;;;6074062;23;20036;-88
2022/02/02 13:03:39;;;;;;;24.92;4.38;;;9.90;99.90;;;;;;6077276;23;20179;-87
2022/02/02 13:06:11;;;;;;;27.00;4.07;;;10.10;99.90;;;;;;6054082;23;20013;-88
2022/02/02 13:08:37;;;;;;;22.60;5.10;;;10.10;99.90;;;;;;6095979;23;20084;-88
2022/02/02 13:11:02;;;;;;;22.73;3.97;;;10.10;99.90;;;;;;6081126;23;20017;-88
2022/02/02 13:13:33;;;;;;;22.98;3.75;;;10.10;99.90;;;;;;6090560;23;20522;-88
2022/02/02 13:16:10;;;;;;;27.38;4.53;;;10.30;99.90;;;;;;6068814;23;20045;-88
2022/02/02 13:18:40;;;;;;;20.90;4.18;;;10.40;99.90;;;;;;6070035;23;20017;-88
2022/02/02 13:21:17;;;;;;;18.30;4.15;;;10.30;99.90;;;;;;6069859;23;20029;-88
2022/02/02 13:26:19;;;;;;;29.25;4.75;;;10.30;99.90;;;;;;6115505;23;20064;-88
2022/02/02 13:28:58;;;;;;;19.60;4.23;;;10.30;99.90;;;;;;6072053;23;20406;-88
2022/02/02 13:31:42;;;;;;;21.33;4.63;;;10.40;99.90;;;;;;6060855;23;20033;-89
2022/02/02 13:34:26;;;;;;;24.65;4.65;;;10.40;99.90;;;;;;6070052;23;20351;-88
2022/02/02 13:37:07;;;;;;;25.58;3.88;;;10.30;99.90;;;;;;6096776;23;20036;-89
2022/02/02 13:43:05;;;;;;;26.02;4.50;;;10.60;99.90;;;;;;6098052;23;20020;-89
2022/02/02 13:48:29;;;;;;;23.65;4.70;;;10.70;99.90;;;;;;6123228;23;20051;-89
2022/02/02 14:04:12;;;;;;;40.03;5.82;;;9.90;99.90;;;;;;6100340;23;20025;-88
2022/02/02 14:09:28;;;;;;;31.17;4.57;;;9.60;99.90;;;;;;6088589;23;20064;-89
2022/02/02 14:33:24;;;;;;;27.13;3.72;;;8.90;99.90;;;;;;6123665;23;20458;-89
2022/02/02 14:35:53;;;;;;;13.13;2.72;;;8.80;99.90;;;;;;6074019;23;20017;-89
2022/02/02 14:38:18;;;;;;;24.60;4.07;;;8.70;99.90;;;;;;6075230;23;20010;-89
2022/02/02 14:43:21;;;;;;;19.67;3.13;;;8.70;99.90;;;;;;6099353;23;20403;-89
2022/02/02 14:45:52;;;;;;;22.65;3.38;;;8.70;99.90;;;;;;6078025;23;20017;-89
2022/02/02 14:48:27;;;;;;;18.33;3.25;;;8.60;99.90;;;;;;6076814;23;20467;-89
2022/02/02 15:05:13;;;;;;;13.05;2.60;;;8.60;99.90;;;;;;6101820;23;20059;-88
2022/02/02 15:05:33;;;;;;;15.30;2.47;;;8.80;99.90;;;;;;6105609;23;20481;-89
2022/02/02 15:24:17;;;;;;;16.25;2.80;;;8.80;99.90;;;;;;6105291;23;20406;-89
2022/02/02 15:29:20;;;;;;;20.70;3.80;;;8.80;99.90;;;;;;6099671;23;20034;-89
2022/02/02 15:31:47;;;;;;;28.08;3.80;;;8.90;99.90;;;;;;6077590;23;20018;-89
2022/02/02 15:34:19;;;;;;;24.63;4.25;;;9.00;99.90;;;;;;6057183;23;20013;-88
2022/02/02 15:37:18;;;;;;;26.05;3.53;;;8.80;99.90;;;;;;6096752;23;20021;-89
2022/02/02 15:39:39;;;;;;;20.98;2.42;;;8.90;99.90;;;;;;6107868;23;20152;-89
2022/02/02 15:57:12;;;;;;;15.38;2.90;;;9.00;99.90;;;;;;6129265;23;20334;-89
2022/02/02 15:58:26;;;;;;;13.27;2.75;;;9.00;99.90;;;;;;6103040;23;20010;-89
2022/02/02 16:06:09;;;;;;;18.85;3.50;;;8.20;99.90;;;;;;6100675;23;20010;-89
2022/02/02 16:08:37;;;;;;;14.32;3.05;;;8.00;99.90;;;;;;6079393;23;20155;-88
2022/02/02 16:11:28;;;;;;;15.55;3.25;;;8.20;99.90;;;;;;6072423;23;20017;-89
2022/02/02 16:13:53;;;;;;;17.17;2.72;;;8.30;99.90;;;;;;6106377;23;20085;-89
2022/02/02 16:18:59;;;;;;;17.02;3.08;;;8.30;99.90;;;;;;6099362;23;20025;-89
2022/02/02 16:33:08;;;;;;;17.52;3.38;;;8.20;99.90;;;;;;6098512;23;20021;-89
2022/02/02 16:37:59;;;;;;;24.13;4.45;;;8.20;99.90;;;;;;6087058;23;20020;-88
2022/02/02 16:40:31;;;;;;;14.35;3.53;;;8.10;99.90;;;;;;6073799;23;20006;-89
2022/02/02 16:45:35;;;;;;;25.95;5.35;;;7.90;99.90;;;;;;6100706;23;20373;-89
2022/02/02 16:48:01;;;;;;;17.52;5.50;;;8.00;99.90;;;;;;6073375;23;20049;-89
2022/02/02 16:50:33;;;;;;;20.42;5.15;;;7.90;99.90;;;;;;6070640;23;20022;-89
2022/02/02 17:31:25;;;;;;;24.38;6.82;;;7.40;99.90;;;;;;6077497;23;20013;-89
2022/02/02 17:34:08;;;;;;;25.95;7.32;;;7.30;99.90;;;;;;6078005;23;20577;-88
2022/02/02 17:36:43;;;;;;;15.70;5.93;;;7.20;99.90;;;;;;6098258;23;20312;-89
2022/02/02 17:39:14;;;;;;;12.98;5.00;;;7.20;99.90;;;;;;6061682;23;20009;-88
2022/02/02 18:20:27;;;;;;;23.42;6.75;;;6.80;99.90;;;;;;6105504;23;20020;-87
2022/02/02 18:23:11;;;;;;;25.10;7.40;;;6.80;99.90;;;;;;6051861;23;20033;-88
2022/02/02 18:25:47;;;;;;;14.38;4.63;;;6.70;99.90;;;;;;6071627;23;20009;-88
2022/02/02 18:28:44;;;;;;;20.63;5.25;;;6.70;99.90;;;;;;6072022;23;20015;-88
2022/02/02 18:31:26;;;;;;;20.60;5.72;;;6.70;99.90;;;;;;6088341;23;20024;-89
2022/02/02 18:34:07;;;;;;;23.30;5.45;;;6.80;99.90;;;;;;6049827;23;20097;-89
2022/02/02 18:37:06;;;;;;;18.27;5.13;;;6.70;99.90;;;;;;6064299;23;20473;-89
2022/02/02 18:40:58;;;;;;;11.82;4.00;;;6.60;99.90;;;;;;6101379;23;20009;-89
2022/02/02 18:59:30;;;;;;;17.90;6.43;;;6.50;99.90;;;;;;6126632;23;20200;-89
2022/02/02 19:52:17;;;;;;;17.70;5.40;;;6.30;99.90;;;;;;6101539;23;20020;-90
2022/02/02 20:05:36;;;;;;;21.27;5.13;;;6.60;99.90;;;;;;6100870;23;20099;-89
2022/02/02 20:08:24;;;;;;;17.73;5.57;;;6.60;99.90;;;;;;6061352;23;20013;-89
2022/02/02 20:11:05;;;;;;;26.13;6.43;;;6.60;99.90;;;;;;6097464;23;20041;-88
2022/02/02 20:13:31;;;;;;;26.80;7.55;;;6.60;99.90;;;;;;6076484;23;20017;-89
2022/02/02 20:16:05;;;;;;;25.90;7.97;;;6.50;99.90;;;;;;6092128;23;20105;-89
2022/02/02 20:18:38;;;;;;;31.08;6.40;;;6.50;99.90;;;;;;6069981;23;20353;-89
2022/02/02 20:21:10;;;;;;;17.65;6.95;;;6.50;99.90;;;;;;6072057;23;20013;-89
2022/02/02 20:23:43;;;;;;;27.40;7.07;;;6.50;99.90;;;;;;6060510;23;20014;-90
2022/02/02 20:26:12;;;;;;;24.58;7.10;;;6.70;99.90;;;;;;6072599;23;20093;-90
2022/02/02 20:28:37;;;;;;;21.00;6.70;;;6.60;99.90;;;;;;6057585;23;20036;-89
2022/02/02 20:31:03;;;;;;;25.58;8.02;;;6.60;99.90;;;;;;6092201;23;20006;-90
2022/02/02 20:33:30;;;;;;;17.10;6.15;;;6.70;99.90;;;;;;6055296;23;20010;-90
2022/02/02 20:35:55;;;;;;;19.70;6.38;;;6.60;99.90;;;;;;6094036;23;20055;-89
2022/02/02 20:38:21;;;;;;;21.73;8.27;;;6.70;99.90;;;;;;6074066;23;20005;-89
2022/02/02 20:40:47;;;;;;;18.45;7.13;;;6.80;99.90;;;;;;6057028;23;20017;-90
2022/02/02 20:43:24;;;;;;;19.70;7.10;;;6.60;99.90;;;;;;6098101;23;20387;-90
2022/02/02 21:03:19;;;;;;;22.92;8.77;;;6.80;99.90;;;;;;6056616;23;20121;-88
2022/02/02 21:06:21;;;;;;;25.85;10.40;;;6.90;99.90;;;;;;6032121;23;24571;-89
2022/02/02 21:08:59;;;;;;;31.60;11.50;;;6.90;99.90;;;;;;6109414;23;20068;-89
2022/02/02 21:11:51;;;;;;;31.05;11.13;;;6.90;99.90;;;;;;6082830;23;20020;-89
2022/02/02 21:14:20;;;;;;;22.75;11.10;;;6.90;99.90;;;;;;6088519;23;20013;-89
2022/02/02 21:16:47;;;;;;;29.10;8.90;;;6.90;99.90;;;;;;6073169;23;20013;-89
2022/02/02 21:19:23;;;;;;;30.88;11.85;;;6.90;99.90;;;;;;6074443;23;20033;-90
2022/02/02 21:21:53;;;;;;;20.35;8.18;;;6.90;99.90;;;;;;6076945;23;20029;-89
2022/02/02 21:26:59;;;;;;;24.17;10.13;;;7.00;99.90;;;;;;6096443;23;20037;-89
2022/02/02 21:29:28;;;;;;;40.53;15.82;;;6.90;99.90;;;;;;6079246;23;20092;-89
2022/02/02 21:31:53;;;;;;;26.13;12.60;;;7.00;99.90;;;;;;6071290;23;20276;-89
2022/02/02 21:34:28;;;;;;;34.78;14.40;;;7.00;99.90;;;;;;6071932;23;20045;-89
2022/02/02 21:37:01;;;;;;;31.48;13.70;;;7.00;99.90;;;;;;6073149;23;20048;-89
2022/02/02 21:39:28;;;;;;;33.00;14.88;;;7.10;99.90;;;;;;6069733;23;20434;-89
2022/02/02 21:41:54;;;;;;;36.67;16.75;;;7.10;99.90;;;;;;6072308;23;20024;-89
2022/02/02 21:44:20;;;;;;;33.13;16.30;;;7.00;99.90;;;;;;6072297;23;20017;-89
2022/02/02 21:46:46;;;;;;;32.22;13.95;;;7.10;99.90;;;;;;6068526;23;20020;-89
2022/02/02 21:49:17;;;;;;;33.45;15.45;;;7.20;99.90;;;;;;6039831;23;20018;-87
2022/02/02 21:51:56;;;;;;;33.20;16.20;;;7.10;99.90;;;;;;6071700;23;20120;-88
2022/02/02 21:54:25;;;;;;;34.35;16.30;;;7.10;99.90;;;;;;6077023;23;20040;-87
2022/02/02 21:56:54;;;;;;;36.33;14.95;;;7.20;99.90;;;;;;6068308;23;20016;-88
2022/02/02 21:59:19;;;;;;;36.95;15.50;;;7.10;99.90;;;;;;6058773;23;20655;-87
2022/02/02 22:01:50;;;;;;;35.55;17.77;;;7.10;99.90;;;;;;6082763;23;20010;-88
2022/02/02 22:04:18;;;;;;;39.47;16.77;;;7.20;99.90;;;;;;6072830;23;20017;-88
2022/02/02 22:06:43;;;;;;;33.38;15.70;;;7.10;99.90;;;;;;6072931;23;20070;-88
2022/02/02 22:09:09;;;;;;;40.40;15.77;;;7.20;99.90;;;;;;6098934;23;20455;-87
2022/02/02 22:11:34;;;;;;;34.20;15.88;;;7.20;99.90;;;;;;6071444;23;20041;-88
2022/02/02 22:14:12;;;;;;;33.25;14.15;;;7.20;99.90;;;;;;6073229;23;20347;-88
2022/02/02 22:16:40;;;;;;;33.53;14.57;;;7.30;99.90;;;;;;6078254;23;20005;-90
2022/02/02 22:19:06;;;;;;;37.38;17.05;;;7.30;99.90;;;;;;6060879;23;20009;-87
2022/02/02 22:21:32;;;;;;;34.90;14.35;;;7.30;99.90;;;;;;6073143;23;20462;-86
2022/02/02 22:24:01;;;;;;;35.45;12.90;;;7.30;99.90;;;;;;6071252;23;20021;-87
2022/02/02 22:26:38;;;;;;;28.13;12.82;;;7.30;99.90;;;;;;6072071;23;20014;-87
2022/02/02 22:29:06;;;;;;;34.17;15.35;;;7.30;99.90;;;;;;6052192;23;20080;-87
2022/02/02 22:31:34;;;;;;;32.55;13.55;;;7.30;99.90;;;;;;6096932;23;20482;-88
2022/02/02 22:34:00;;;;;;;36.40;16.20;;;7.30;99.90;;;;;;6075287;23;20037;-87
2022/02/02 22:36:26;;;;;;;38.05;17.63;;;7.30;99.90;;;;;;6075746;23;20020;-88
2022/02/02 22:38:51;;;;;;;35.20;16.85;;;7.30;99.90;;;;;;6062999;23;20024;-88
2022/02/02 22:41:17;;;;;;;38.38;15.77;;;7.30;99.90;;;;;;6073380;23;20025;-88
2022/02/02 22:43:49;;;;;;;37.40;14.90;;;7.30;99.90;;;;;;6060972;23;20077;-88
2022/02/02 22:46:16;;;;;;;36.20;17.13;;;7.30;99.90;;;;;;6077872;23;20032;-88
2022/02/02 22:48:45;;;;;;;44.65;18.75;;;7.40;99.90;;;;;;6075514;23;20010;-89
2022/02/02 22:51:11;;;;;;;40.15;16.77;;;7.40;99.90;;;;;;6073916;23;20022;-88
2022/02/02 22:53:38;;;;;;;38.60;17.25;;;7.40;99.90;;;;;;6071524;23;20068;-88
2022/02/02 22:56:04;;;;;;;36.42;17.00;;;7.40;99.90;;;;;;6073484;23;20013;-88
2022/02/02 22:58:32;;;;;;;36.75;15.10;;;7.40;99.90;;;;;;6073134;23;20006;-88
2022/02/02 23:01:01;;;;;;;35.60;17.60;;;7.40;99.90;;;;;;6075582;23;20442;-88
2022/02/02 23:03:30;;;;;;;40.70;17.60;;;7.40;99.90;;;;;;6072177;23;20331;-88
2022/02/02 23:05:59;;;;;;;39.83;16.35;;;7.40;99.90;;;;;;6099176;23;20017;-89